PDT,Max TemperatureF,Mean TemperatureF,Min TemperatureF,Max Dew PointF,MeanDew PointF,Min DewpointF,Max Humidity, Mean Humidity, Min Humidity, Max Sea Level PressureIn, Mean Sea Level PressureIn, Min Sea Level PressureIn, Max VisibilityMiles, Mean VisibilityMiles, Min VisibilityMiles, Max Wind SpeedMPH, Mean Wind SpeedMPH, Max Gust SpeedMPH,PrecipitationIn, CloudCover, Events, WindDirDegrees
2011-10-1,74,66,57,58,56,54,93,71,49,30.01,29.97,29.92,10,10,10,18,8,21,0.00,5,,220
2011-10-2,75,62,49,56,53,48,93,71,49,30.07,30.01,29.96,10,8,0,17,7,22,0.00,4,Fog,247
2011-10-3,65,55,45,57,52,44,93,80,67,29.99,29.91,29.85,10,10,4,18,7,22,0.19,6,Rain,336
2011-10-4,68,63,57,57,55,52,93,76,58,29.90,29.83,29.65,10,8,2,18,9,23,0.25,7,Rain,142
2011-10-5,67,57,47,55,51,46,93,71,48,29.84,29.70,29.60,10,8,1,21,7,25,0.50,5,Rain,252
2011-10-6,67,55,43,55,48,41,93,73,52,30.06,29.93,29.85,10,10,2,18,4,55,0.13,3,Rain,34
2011-10-7,72,55,38,50,46,39,96,69,41,30.15,30.10,30.06,10,10,10,15,4,22,0.01,0,,206
2011-10-8,76,59,42,53,48,42,100,71,41,30.11,30.06,29.99,10,9,0,15,4,17,0.00,0,Fog,247
2011-10-9,76,65,54,56,53,50,93,70,46,30.04,29.98,29.90,10,8,1,13,5,23,0.00,5,,257
2011-10-10,68,63,57,63,61,54,100,93,86,29.97,29.93,29.90,10,7,2,21,10,24,0.09,7,Rain,205
2011-10-11,80,66,52,63,60,51,93,71,48,30.08,30.02,29.97,10,9,2,15,6,20,0.00,5,,225
2011-10-12,82,65,48,59,52,46,100,71,42,30.09,30.03,29.94,10,6,0,8,2,18,0.00,2,Fog,202
2011-10-13,87,68,49,56,52,48,96,62,27,29.97,29.89,29.79,10,10,2,8,2,13,0.00,0,,179
2011-10-14,88,71,53,58,54,50,89,62,34,29.83,29.80,29.76,10,10,10,10,3,14,0.00,1,,232
2011-10-15,74,64,53,59,56,51,97,77,57,29.95,29.87,29.80,10,10,10,16,8,22,0.00,1,,235
2011-10-16,73,62,50,57,56,52,93,75,57,30.06,30.01,29.95,10,10,7,16,6,18,T,3,,288
2011-10-17,86,67,48,60,51,46,100,69,37,30.09,30.06,29.96,10,6,0,9,3,16,0.00,1,Fog,194
2011-10-18,78,63,48,61,55,48,100,77,54,30.05,29.99,29.94,10,9,0,16,6,23,0.01,2,Fog,225
2011-10-19,72,62,52,56,54,51,93,75,57,30.03,29.97,29.93,10,10,10,16,9,20,0.00,4,,241
2011-10-20,68,57,46,57,53,46,93,81,68,30.07,30.00,29.95,10,8,1,12,4,15,0.00,4,,238
2011-10-21,76,59,42,58,52,42,100,75,50,30.17,30.10,30.05,10,6,0,8,2,20,0.00,2,Fog,178
2011-10-22,84,64,43,55,48,43,100,68,36,30.11,30.06,29.96,10,6,0,10,2,13,0.00,0,Fog,10
2011-10-23,86,66,45,54,49,44,93,62,30,29.98,29.93,29.87,10,10,10,15,4,18,0.00,1,,71
2011-10-24,68,58,48,56,52,46,96,82,68,30.01,29.96,29.91,10,9,7,21,8,25,0.00,3,,194
2011-10-25,68,55,41,54,49,42,100,79,58,30.10,30.03,29.99,10,6,0,14,4,16,0.00,5,Fog,247
2011-10-26,78,58,38,45,37,15,96,53,10,30.12,30.06,30.01,10,5,0,17,5,17,0.00,0,Fog,164
2011-10-27,76,54,32,40,35,29,89,54,19,30.06,30.03,29.98,10,10,10,12,4,28,0.00,0,,166
2011-10-28,75,55,35,40,36,32,85,55,25,30.13,30.08,30.05,10,10,10,9,3,12,0.00,0,,200
2011-10-29,77,57,36,45,40,35,92,60,27,30.14,30.08,30.02,10,10,10,9,3,21,0.00,0,,179
2011-10-30,78,60,41,52,46,39,93,62,30,30.10,30.05,30.01,10,10,10,10,3,18,0.00,0,,206
2011-10-31,79,61,43,55,49,42,93,65,37,30.04,30.00,29.93,10,10,8,9,3,15,0.00,0,,200